Time,TemperatureF,DewpointF,PressureIn,WindDirection,WindDirectionDegrees,WindSpeedMPH,WindSpeedGustMPH,Humidity,HourlyPrecipIn,Conditions,Clouds,dailyrainin,SoftwareType,DateUTC
2013-08-29 00:00:00,76.7,72.5,29.89,NW,315,0.0,0.0,87,0.00,,,0.00,WUHU216HW,2013-08-29 04:00:00,
2013-08-29 00:01:00,76.7,72.5,29.89,NW,315,0.0,0.0,87,0.00,,,0.00,WUHU216HW,2013-08-29 04:01:00,
2013-08-29 00:06:00,76.7,72.5,29.89,NW,315,0.0,0.0,87,0.00,,,0.00,WUHU216HW,2013-08-29 04:06:00,
2013-08-29 00:30:00,76.7,72.5,29.89,SW,225,0.0,0.0,87,0.00,,,0.00,WUHU216HW,2013-08-29 04:30:00,
2013-08-29 00:35:00,76.7,72.5,29.89,SW,225,0.0,0.0,87,0.00,,,0.00,WUHU216HW,2013-08-29 04:35:00,
2013-08-29 01:00:00,76.7,72.5,29.89,SSW,203,0.0,0.0,87,0.00,,,0.00,WUHU216HW,2013-08-29 05:00:00,
2013-08-29 01:05:00,76.7,72.5,29.89,SSW,203,0.0,0.0,87,0.00,,,0.00,WUHU216HW,2013-08-29 05:05:00,
2013-08-29 01:30:00,76.7,72.2,29.89,SW,225,0.0,0.0,86,0.00,,,0.00,WUHU216HW,2013-08-29 05:30:00,
2013-08-29 01:35:00,76.7,72.2,29.89,SW,225,0.0,0.0,86,0.00,,,0.00,WUHU216HW,2013-08-29 05:35:00,
2013-08-29 02:00:00,76.7,72.2,29.88,SW,225,0.0,0.0,86,0.00,,,0.00,WUHU216HW,2013-08-29 06:00:00,
2013-08-29 02:05:00,76.7,72.2,29.88,SW,225,0.0,0.0,86,0.00,,,0.00,WUHU216HW,2013-08-29 06:05:00,
2013-08-29 02:30:00,76.7,72.2,29.87,SW,225,0.0,0.0,86,0.00,,,0.00,WUHU216HW,2013-08-29 06:30:00,
2013-08-29 02:35:00,76.7,72.2,29.87,SW,225,0.0,0.0,86,0.00,,,0.00,WUHU216HW,2013-08-29 06:35:00,
2013-08-29 03:00:00,76.7,72.2,29.87,SW,225,0.0,0.0,86,0.00,,,0.00,WUHU216HW,2013-08-29 07:00:00,
2013-08-29 03:05:00,76.7,72.2,29.87,SW,225,0.0,0.0,86,0.00,,,0.00,WUHU216HW,2013-08-29 07:05:00,
2013-08-29 03:30:00,76.3,71.8,29.88,SW,225,0.0,0.0,86,0.00,,,0.00,WUHU216HW,2013-08-29 07:30:00,
2013-08-29 03:35:00,76.3,71.8,29.88,SW,225,0.0,0.0,86,0.00,,,0.00,WUHU216HW,2013-08-29 07:35:00,
2013-08-29 04:00:00,76.3,71.8,29.87,South,180,0.0,0.0,86,0.00,,,0.00,WUHU216HW,2013-08-29 08:00:00,
2013-08-29 04:05:00,76.3,71.8,29.87,South,180,0.0,0.0,86,0.00,,,0.00,WUHU216HW,2013-08-29 08:05:00,
2013-08-29 04:30:00,76.3,71.5,29.87,North,0,0.0,0.0,85,0.00,,,0.00,WUHU216HW,2013-08-29 08:30:00,
2013-08-29 04:35:00,76.3,71.5,29.87,North,0,0.0,0.0,85,0.00,,,0.00,WUHU216HW,2013-08-29 08:35:00,
2013-08-29 05:00:00,76.0,71.5,29.87,West,270,0.0,0.0,86,0.00,,,0.00,WUHU216HW,2013-08-29 09:00:00,
2013-08-29 05:05:00,76.0,71.5,29.87,West,270,0.0,0.0,86,0.00,,,0.00,WUHU216HW,2013-08-29 09:05:00,
2013-08-29 05:30:00,75.6,71.2,29.88,WSW,248,0.0,0.0,86,0.00,,,0.00,WUHU216HW,2013-08-29 09:30:00,
2013-08-29 05:35:00,75.6,71.2,29.88,WSW,248,0.0,0.0,86,0.00,,,0.00,WUHU216HW,2013-08-29 09:35:00,
2013-08-29 06:00:00,75.4,71.0,29.88,West,270,0.0,0.0,86,0.00,,,0.00,WUHU216HW,2013-08-29 10:00:00,
2013-08-29 06:05:00,75.4,71.0,29.88,West,270,0.0,0.0,86,0.00,,,0.00,WUHU216HW,2013-08-29 10:05:00,
2013-08-29 06:30:00,75.2,70.8,29.88,West,270,0.0,0.0,86,0.00,,,0.00,WUHU216HW,2013-08-29 10:30:00,
2013-08-29 06:35:00,75.2,70.8,29.88,West,270,0.0,0.0,86,0.00,,,0.00,WUHU216HW,2013-08-29 10:35:00,
2013-08-29 07:00:00,74.9,70.8,29.90,NW,315,0.0,0.0,87,0.00,,,0.00,WUHU216HW,2013-08-29 11:00:00,
2013-08-29 07:05:00,74.9,70.8,29.90,NW,315,0.0,0.0,87,0.00,,,0.00,WUHU216HW,2013-08-29 11:05:00,
2013-08-29 07:30:00,74.9,70.8,29.91,NNW,338,0.0,0.0,87,0.00,,,0.00,WUHU216HW,2013-08-29 11:30:00,
2013-08-29 07:35:00,74.9,70.8,29.91,NNW,338,0.0,0.0,87,0.00,,,0.00,WUHU216HW,2013-08-29 11:35:00,
2013-08-29 08:00:00,74.5,70.7,29.93,North,0,0.0,0.0,88,0.00,,,0.00,WUHU216HW,2013-08-29 12:00:00,
2013-08-29 08:05:00,74.5,70.7,29.93,North,0,0.0,0.0,88,0.00,,,0.00,WUHU216HW,2013-08-29 12:05:00,
2013-08-29 08:30:00,74.9,71.1,29.95,NNW,338,0.0,0.0,88,0.00,,,0.00,WUHU216HW,2013-08-29 12:30:00,
2013-08-29 08:35:00,74.9,71.1,29.95,NNW,338,0.0,0.0,88,0.00,,,0.00,WUHU216HW,2013-08-29 12:35:00,
2013-08-29 09:00:00,76.0,71.8,29.95,NE,45,0.0,0.0,87,0.00,,,0.00,WUHU216HW,2013-08-29 13:00:00,
2013-08-29 09:05:00,76.0,71.8,29.95,NE,45,0.0,0.0,87,0.00,,,0.00,WUHU216HW,2013-08-29 13:05:00,
2013-08-29 09:30:00,77.0,72.5,29.95,NNE,23,0.0,0.0,86,0.00,,,0.00,WUHU216HW,2013-08-29 13:30:00,
2013-08-29 09:35:00,77.0,72.5,29.95,NNE,23,0.0,0.0,86,0.00,,,0.00,WUHU216HW,2013-08-29 13:35:00,
2013-08-29 10:00:00,77.6,72.7,29.96,North,0,0.0,0.0,85,0.00,,,0.00,WUHU216HW,2013-08-29 14:00:00,
2013-08-29 10:05:00,77.6,72.7,29.96,North,0,0.0,0.0,85,0.00,,,0.00,WUHU216HW,2013-08-29 14:05:00,
2013-08-29 10:30:00,78.5,73.3,29.96,North,0,0.0,0.0,84,0.00,,,0.00,WUHU216HW,2013-08-29 14:30:00,
2013-08-29 10:35:00,78.5,73.3,29.96,North,0,0.0,0.0,84,0.00,,,0.00,WUHU216HW,2013-08-29 14:35:00,
2013-08-29 11:00:00,77.9,73.1,29.97,ENE,68,1.1,1.1,85,0.00,,,0.00,WUHU216HW,2013-08-29 15:00:00,
2013-08-29 11:05:00,77.9,73.1,29.97,ENE,68,1.1,1.1,85,0.00,,,0.00,WUHU216HW,2013-08-29 15:05:00,
2013-08-29 11:30:00,77.6,72.7,29.98,ENE,68,0.4,0.4,85,0.00,,,0.00,WUHU216HW,2013-08-29 15:30:00,
2013-08-29 11:35:00,77.6,72.7,29.98,ENE,68,0.4,0.4,85,0.00,,,0.00,WUHU216HW,2013-08-29 15:35:00,
2013-08-29 12:00:00,77.8,72.5,29.98,NNW,338,0.9,0.9,84,0.00,,,0.00,WUHU216HW,2013-08-29 16:00:00,
2013-08-29 12:05:00,77.8,72.5,29.98,NNW,338,0.9,0.9,84,0.00,,,0.00,WUHU216HW,2013-08-29 16:05:00,
2013-08-29 12:30:00,78.5,73.6,29.98,NNW,338,0.2,0.2,85,0.00,,,0.00,WUHU216HW,2013-08-29 16:30:00,
2013-08-29 12:35:00,78.5,73.6,29.98,NNW,338,0.2,0.2,85,0.00,,,0.00,WUHU216HW,2013-08-29 16:35:00,
2013-08-29 13:00:00,81.0,74.7,29.97,SE,135,0.4,0.4,81,0.00,,,0.00,WUHU216HW,2013-08-29 17:00:00,
2013-08-29 13:05:00,81.0,74.7,29.97,SE,135,0.4,0.4,81,0.00,,,0.00,WUHU216HW,2013-08-29 17:05:00,
2013-08-29 13:30:00,82.3,75.2,29.97,North,0,0.7,0.7,79,0.00,,,0.00,WUHU216HW,2013-08-29 17:30:00,
2013-08-29 13:35:00,82.3,75.2,29.97,North,0,0.7,0.7,79,0.00,,,0.00,WUHU216HW,2013-08-29 17:35:00,
2013-08-29 14:00:00,82.8,74.9,29.97,NNE,23,1.1,1.1,77,0.00,,,0.00,WUHU216HW,2013-08-29 18:00:00,
2013-08-29 14:05:00,82.8,74.9,29.97,NNE,23,1.1,1.1,77,0.00,,,0.00,WUHU216HW,2013-08-29 18:05:00,
2013-08-29 14:30:00,84.2,75.4,29.97,NNE,23,1.3,1.3,75,0.00,,,0.00,WUHU216HW,2013-08-29 18:30:00,
2013-08-29 14:35:00,84.2,75.4,29.97,NNE,23,1.3,1.3,75,0.00,,,0.00,WUHU216HW,2013-08-29 18:35:00,
2013-08-29 15:00:00,83.7,74.1,29.97,WNW,293,0.4,0.4,73,0.00,,,0.00,WUHU216HW,2013-08-29 19:00:00,
2013-08-29 15:05:00,83.7,74.1,29.97,WNW,293,0.4,0.4,73,0.00,,,0.00,WUHU216HW,2013-08-29 19:05:00,
2013-08-29 15:30:00,84.1,74.1,29.96,NNW,338,0.0,0.0,72,0.00,,,0.00,WUHU216HW,2013-08-29 19:30:00,
2013-08-29 15:35:00,84.1,74.1,29.96,NNW,338,0.0,0.0,72,0.00,,,0.00,WUHU216HW,2013-08-29 19:35:00,
2013-08-29 16:00:00,84.2,74.3,29.96,WSW,248,0.2,0.2,72,0.00,,,0.00,WUHU216HW,2013-08-29 20:00:00,
2013-08-29 16:05:00,84.2,74.3,29.96,WSW,248,0.2,0.2,72,0.00,,,0.00,WUHU216HW,2013-08-29 20:05:00,
2013-08-29 16:30:00,84.2,73.8,29.96,NNE,23,0.2,0.2,71,0.00,,,0.00,WUHU216HW,2013-08-29 20:30:00,
2013-08-29 16:35:00,84.2,73.8,29.96,NNE,23,0.2,0.2,71,0.00,,,0.00,WUHU216HW,2013-08-29 20:35:00,
2013-08-29 17:00:00,83.7,73.7,29.97,North,0,1.3,1.3,72,0.00,,,0.00,WUHU216HW,2013-08-29 21:00:00,
2013-08-29 17:05:00,83.7,73.7,29.97,North,0,1.3,1.3,72,0.00,,,0.00,WUHU216HW,2013-08-29 21:05:00,
2013-08-29 17:30:00,83.0,72.6,29.97,NNW,338,1.3,1.3,71,0.00,,,0.00,WUHU216HW,2013-08-29 21:30:00,
2013-08-29 17:35:00,83.0,72.6,29.97,NNW,338,1.3,1.3,71,0.00,,,0.00,WUHU216HW,2013-08-29 21:35:00,
2013-08-29 18:00:00,82.4,72.5,29.96,NNW,338,0.4,0.4,72,0.00,,,0.00,WUHU216HW,2013-08-29 22:00:00,
2013-08-29 18:05:00,82.4,72.5,29.96,NNW,338,0.4,0.4,72,0.00,,,0.00,WUHU216HW,2013-08-29 22:05:00,
2013-08-29 18:30:00,81.9,72.0,29.96,NNE,23,0.4,0.4,72,0.00,,,0.00,WUHU216HW,2013-08-29 22:30:00,
2013-08-29 18:35:00,81.9,72.0,29.96,NNE,23,0.4,0.4,72,0.00,,,0.00,WUHU216HW,2013-08-29 22:35:00,
2013-08-29 19:00:00,80.5,71.5,29.97,North,0,0.0,0.0,74,0.00,,,0.00,WUHU216HW,2013-08-29 23:00:00,
2013-08-29 19:05:00,80.5,71.5,29.97,North,0,0.0,0.0,74,0.00,,,0.00,WUHU216HW,2013-08-29 23:05:00,
2013-08-29 19:30:00,80.3,71.6,29.98,North,0,0.0,0.0,75,0.00,,,0.00,WUHU216HW,2013-08-29 23:30:00,
2013-08-29 19:35:00,80.3,71.6,29.98,North,0,0.0,0.0,75,0.00,,,0.00,WUHU216HW,2013-08-29 23:35:00,
2013-08-29 20:00:00,79.2,71.4,30.00,ENE,68,0.0,0.0,77,0.00,,,0.00,WUHU216HW,2013-08-30 00:00:00,
2013-08-29 20:05:00,79.2,71.4,30.00,ENE,68,0.0,0.0,77,0.00,,,0.00,WUHU216HW,2013-08-30 00:05:00,
2013-08-29 20:30:00,77.8,70.8,30.01,ENE,68,0.4,0.4,79,0.00,,,0.00,WUHU216HW,2013-08-30 00:30:00,
2013-08-29 20:35:00,77.8,70.8,30.01,ENE,68,0.4,0.4,79,0.00,,,0.00,WUHU216HW,2013-08-30 00:35:00,
2013-08-29 21:00:00,76.9,69.9,30.02,NNE,23,0.0,0.0,79,0.00,,,0.00,WUHU216HW,2013-08-30 01:00:00,
2013-08-29 21:05:00,76.9,69.9,30.02,NNE,23,0.0,0.0,79,0.00,,,0.00,WUHU216HW,2013-08-30 01:05:00,
2013-08-29 21:30:00,76.3,70.1,30.02,WSW,248,0.0,0.0,81,0.00,,,0.00,WUHU216HW,2013-08-30 01:30:00,
2013-08-29 21:35:00,76.3,70.1,30.02,WSW,248,0.0,0.0,81,0.00,,,0.00,WUHU216HW,2013-08-30 01:35:00,
2013-08-29 22:00:00,76.0,69.8,30.03,SSW,203,0.0,0.0,81,0.00,,,0.00,WUHU216HW,2013-08-30 02:00:00,
2013-08-29 22:05:00,76.0,69.8,30.03,SSW,203,0.0,0.0,81,0.00,,,0.00,WUHU216HW,2013-08-30 02:05:00,
2013-08-29 22:30:00,75.2,69.8,30.04,SSW,203,0.0,0.0,83,0.00,,,0.00,WUHU216HW,2013-08-30 02:30:00,
2013-08-29 22:35:00,75.2,69.8,30.04,SSW,203,0.0,0.0,83,0.00,,,0.00,WUHU216HW,2013-08-30 02:35:00,
2013-08-29 23:00:00,74.5,69.8,30.03,SSW,203,0.0,0.0,85,0.00,,,0.00,WUHU216HW,2013-08-30 03:00:00,
2013-08-29 23:05:00,74.5,69.8,30.03,SSW,203,0.0,0.0,85,0.00,,,0.00,WUHU216HW,2013-08-30 03:05:00,
2013-08-29 23:30:00,74.2,69.4,30.04,SSW,203,0.0,0.0,85,0.00,,,0.00,WUHU216HW,2013-08-30 03:30:00,
2013-08-29 23:35:00,74.2,69.4,30.04,SSW,203,0.0,0.0,85,0.00,,,0.00,WUHU216HW,2013-08-30 03:35:00,